createdAt,value
2022-11-08T00:01:54.975Z,118.65
2022-11-08T00:04:27.411Z,113.95
2022-11-08T00:07:13.295Z,115.50
2022-11-08T00:09:58.966Z,114.40
2022-11-08T00:12:44.968Z,108.80
2022-11-08T00:15:14.352Z,108.05
2022-11-08T00:17:42.902Z,110.30
2022-11-08T00:20:13.538Z,109.32
2022-11-08T00:22:43.904Z,111.70
2022-11-08T00:25:13.802Z,108.32
2022-11-08T00:27:41.981Z,110.38
2022-11-08T00:30:12.446Z,106.07
2022-11-08T00:32:41.809Z,109.85
2022-11-08T00:35:12.550Z,111.65
2022-11-08T00:37:43.134Z,110.85
2022-11-08T00:40:13.792Z,110.53
2022-11-08T00:42:43.154Z,115.78
2022-11-08T00:45:11.421Z,113.40
2022-11-08T00:47:40.732Z,115.30
2022-11-08T00:50:09.790Z,111.28
2022-11-08T00:52:40.846Z,110.53
2022-11-08T00:55:10.607Z,111.13
2022-11-08T00:57:58.310Z,110.88
2022-11-08T01:00:27.678Z,114.85
2022-11-08T01:03:12.233Z,114.80
2022-11-08T01:05:42.331Z,108.50
2022-11-08T01:08:15.339Z,106.55
2022-11-08T01:10:47.484Z,107.30
2022-11-08T01:13:16.247Z,104.20
2022-11-08T01:15:47.081Z,107.28
2022-11-08T01:18:18.342Z,107.95
2022-11-08T01:20:50.631Z,109.25
2022-11-08T01:23:20.903Z,105.85
2022-11-08T01:25:52.132Z,108.05
2022-11-08T01:28:21.971Z,107.83
2022-11-08T01:30:51.377Z,111.57
2022-11-08T01:33:22.268Z,114.03
2022-11-08T01:35:51.669Z,113.88
2022-11-08T01:38:21.892Z,119.13
2022-11-08T01:40:51.758Z,113.07
2022-11-08T01:43:39.683Z,111.93
2022-11-08T01:46:42.078Z,110.80
2022-11-08T01:49:36.755Z,111.10
2022-11-08T01:52:25.863Z,111.30
2022-11-08T01:55:09.685Z,112.70
2022-11-08T01:57:49.805Z,118.50
2022-11-08T02:00:19.375Z,118.03
2022-11-08T02:02:59.142Z,120.97
2022-11-08T02:05:31.163Z,115.20
2022-11-08T02:08:06.999Z,111.90
2022-11-08T02:10:39.261Z,109.07
2022-11-08T02:13:14.862Z,106.13
2022-11-08T02:15:44.064Z,110.03
2022-11-08T02:18:16.343Z,107.38
2022-11-08T02:20:52.458Z,110.57
2022-11-08T02:23:28.704Z,110.30
2022-11-08T02:25:58.699Z,99.57
2022-11-08T02:28:29.582Z,106.43
2022-11-08T02:30:57.722Z,107.72
2022-11-08T02:33:27.427Z,106.07
2022-11-08T02:35:58.350Z,100.30
2022-11-08T02:38:30.108Z,97.30
2022-11-08T02:41:01.346Z,98.22
2022-11-08T02:43:31.089Z,101.38
2022-11-08T02:46:01.082Z,100.70
2022-11-08T02:48:31.946Z,100.37
2022-11-08T02:51:00.017Z,100.40
2022-11-08T02:53:31.467Z,99.40
2022-11-08T02:56:02.237Z,102.40
2022-11-08T02:58:31.694Z,101.20
2022-11-08T03:00:59.868Z,98.60
2022-11-08T03:03:30.723Z,99.70
2022-11-08T03:05:58.906Z,100.25
2022-11-08T03:08:28.584Z,99.57
2022-11-08T03:11:00.093Z,101.60
2022-11-08T03:13:30.971Z,98.03
2022-11-08T03:15:59.103Z,99.78
2022-11-08T03:18:27.574Z,99.90
2022-11-08T03:20:55.702Z,101.13
2022-11-08T03:23:25.185Z,100.97
2022-11-08T03:25:53.400Z,102.45
2022-11-08T03:28:23.658Z,101.00
2022-11-08T03:30:54.043Z,100.03
2022-11-08T03:33:22.816Z,98.72
2022-11-08T03:35:54.450Z,100.18
2022-11-08T03:38:23.890Z,98.72
2022-11-08T03:40:52.359Z,101.82
2022-11-08T03:43:20.857Z,98.68
2022-11-08T03:45:49.336Z,102.38
2022-11-08T03:48:20.715Z,99.32
2022-11-08T03:50:52.248Z,100.55
2022-11-08T03:53:21.935Z,98.35
2022-11-08T03:55:51.645Z,100.07
2022-11-08T03:58:21.439Z,97.88
2022-11-08T04:00:50.939Z,97.97
2022-11-08T04:03:20.735Z,96.28
2022-11-08T04:05:51.489Z,97.03
2022-11-08T04:08:21.205Z,96.35
2022-11-08T04:10:50.584Z,95.53
2022-11-08T04:13:38.751Z,95.97
2022-11-08T04:16:11.802Z,93.57
2022-11-08T04:19:03.492Z,96.40
2022-11-08T04:21:33.546Z,96.35
2022-11-08T04:24:03.269Z,92.18
2022-11-08T04:26:31.338Z,94.65
2022-11-08T04:29:03.501Z,93.72
2022-11-08T04:31:32.694Z,97.38
2022-11-08T04:34:03.836Z,94.78
2022-11-08T04:36:34.381Z,96.10
2022-11-08T04:39:05.121Z,99.03
2022-11-08T04:41:33.449Z,97.60
2022-11-08T04:44:05.016Z,98.82
2022-11-08T04:46:35.296Z,96.50
2022-11-08T04:49:07.181Z,96.93
2022-11-08T04:51:36.492Z,94.03
2022-11-08T04:54:07.593Z,95.30
2022-11-08T04:56:37.166Z,95.97
2022-11-08T04:59:11.590Z,99.00
2022-11-08T05:01:41.617Z,101.10
2022-11-08T05:04:12.372Z,102.10
2022-11-08T05:06:41.701Z,100.53
2022-11-08T05:09:12.213Z,98.82
2022-11-08T05:11:40.332Z,99.95
2022-11-08T05:14:10.997Z,99.90
2022-11-08T05:16:39.517Z,99.28
2022-11-08T05:19:13.019Z,98.55
2022-11-08T05:22:01.999Z,99.55
2022-11-08T05:24:32.891Z,99.05
2022-11-08T05:27:01.145Z,97.88
2022-11-08T05:29:31.794Z,98.18
2022-11-08T05:32:01.455Z,97.38
2022-11-08T05:34:30.808Z,97.57
2022-11-08T05:37:00.805Z,98.50
2022-11-08T05:39:32.382Z,99.00
2022-11-08T05:42:01.952Z,98.57
2022-11-08T05:44:32.700Z,100.13
2022-11-08T05:47:00.796Z,98.40
2022-11-08T05:49:31.483Z,101.63
2022-11-08T05:52:03.532Z,101.78
2022-11-08T05:54:31.851Z,100.53
2022-11-08T05:56:59.967Z,98.57
2022-11-08T05:59:30.848Z,97.90
2022-11-08T06:01:59.177Z,102.18
2022-11-08T06:04:29.804Z,100.50
2022-11-08T06:06:58.278Z,98.75
2022-11-08T06:09:27.761Z,102.85
2022-11-08T06:11:57.463Z,99.47
2022-11-08T06:14:27.302Z,101.30
2022-11-08T06:16:57.004Z,99.10
2022-11-08T06:19:27.537Z,100.25
2022-11-08T06:21:58.115Z,103.80
2022-11-08T06:24:28.824Z,100.93
2022-11-08T06:26:57.738Z,104.18
2022-11-08T06:29:28.395Z,101.30
2022-11-08T06:31:58.712Z,102.93
2022-11-08T06:34:29.302Z,100.32
2022-11-08T06:36:59.305Z,101.22
2022-11-08T06:39:30.972Z,103.72
2022-11-08T06:42:01.169Z,101.18
2022-11-08T06:44:30.377Z,101.03
2022-11-08T06:46:59.829Z,98.80
2022-11-08T06:49:29.726Z,100.07
2022-11-08T06:51:58.222Z,99.68
2022-11-08T06:54:31.589Z,101.88
2022-11-08T06:57:02.066Z,99.80
2022-11-08T06:59:31.414Z,103.13
2022-11-08T07:02:00.801Z,99.40
2022-11-08T07:04:31.240Z,100.70
2022-11-08T07:06:59.713Z,100.70
2022-11-08T07:09:29.889Z,98.03
2022-11-08T07:11:59.351Z,103.47
2022-11-08T07:14:29.859Z,102.05
2022-11-08T07:16:58.002Z,98.38
2022-11-08T07:19:27.355Z,100.13
2022-11-08T07:21:56.796Z,102.70
2022-11-08T07:24:26.107Z,102.82
2022-11-08T07:26:57.062Z,101.03
2022-11-08T07:29:27.585Z,103.20
2022-11-08T07:31:56.842Z,98.90
2022-11-08T07:34:25.148Z,95.82
2022-11-08T07:36:54.449Z,97.82
2022-11-08T07:39:24.088Z,97.65
2022-11-08T07:41:52.202Z,100.57
2022-11-08T07:44:23.076Z,97.07
2022-11-08T07:49:20.661Z,98.90
2022-11-08T07:51:49.993Z,101.22
2022-11-08T07:54:20.783Z,99.25
2022-11-08T07:56:49.186Z,99.93
2022-11-08T07:59:18.571Z,96.90
2022-11-08T08:01:48.102Z,96.57
2022-11-08T08:04:16.228Z,95.88
2022-11-08T08:06:45.528Z,98.97
2022-11-08T08:09:15.297Z,99.63
2022-11-08T08:11:44.479Z,97.60
2022-11-08T08:14:13.023Z,96.72
2022-11-08T08:16:42.730Z,104.30
2022-11-08T08:19:15.556Z,101.03
2022-11-08T08:21:45.101Z,103.25
2022-11-08T08:24:15.908Z,105.65
2022-11-08T08:26:46.310Z,103.57
2022-11-08T08:29:17.030Z,99.35
2022-11-08T08:31:46.485Z,104.30
2022-11-08T08:34:18.293Z,100.38
2022-11-08T08:36:47.230Z,100.53
2022-11-08T08:39:16.980Z,103.95
2022-11-08T08:41:48.952Z,104.82
2022-11-08T08:44:18.695Z,101.65
2022-11-08T08:46:47.119Z,104.90
2022-11-08T08:49:18.177Z,101.32
2022-11-08T08:51:46.592Z,107.27
2022-11-08T08:54:16.269Z,103.32
2022-11-08T08:56:45.528Z,108.80
2022-11-08T09:02:04.147Z,103.63
2022-11-08T09:04:34.850Z,102.88
2022-11-08T09:07:03.601Z,107.60
2022-11-08T09:09:31.784Z,105.07
2022-11-08T09:12:01.450Z,106.75
2022-11-08T09:14:31.428Z,105.25
2022-11-08T09:17:00.862Z,106.80
2022-11-08T09:19:32.547Z,109.18
2022-11-08T09:22:02.141Z,111.22
2022-11-08T09:24:32.766Z,113.35
2022-11-08T09:27:03.592Z,112.63
2022-11-08T09:29:34.783Z,116.68
2022-11-08T09:32:04.218Z,119.47
2022-11-08T09:34:32.738Z,124.97
2022-11-08T09:37:02.211Z,114.63
2022-11-08T09:39:31.926Z,120.13
2022-11-08T09:42:24.826Z,114.68
2022-11-08T09:45:19.261Z,120.45
2022-11-08T09:47:53.026Z,125.25
2022-11-08T09:50:26.794Z,122.47
2022-11-08T09:53:03.859Z,128.15
2022-11-08T09:55:39.536Z,117.93
2022-11-08T09:58:25.757Z,116.07
2022-11-08T10:00:55.289Z,118.18
2022-11-08T10:03:27.047Z,118.57
2022-11-08T10:06:32.229Z,119.28
2022-11-08T10:09:17.625Z,119.45
2022-11-08T10:12:01.396Z,118.10
2022-11-08T10:14:58.752Z,117.95
2022-11-08T10:17:53.405Z,119.75
2022-11-08T10:20:37.565Z,115.05
2022-11-08T10:23:20.348Z,122.25
2022-11-08T10:25:58.178Z,119.55
2022-11-08T10:28:35.352Z,127.30
2022-11-08T10:31:05.703Z,133.52
2022-11-08T10:33:41.564Z,122.90
2022-11-08T10:36:14.608Z,127.00
2022-11-08T10:38:52.589Z,135.75
2022-11-08T10:41:32.344Z,118.95
2022-11-08T10:44:06.319Z,116.65
2022-11-08T10:46:42.534Z,122.13
2022-11-08T10:49:22.164Z,122.18
2022-11-08T10:51:53.859Z,123.55
2022-11-08T10:54:49.774Z,127.82
2022-11-08T10:57:27.490Z,133.48
2022-11-08T10:59:58.438Z,124.45
2022-11-08T11:02:30.693Z,125.07
2022-11-08T11:05:23.077Z,128.25
2022-11-08T11:08:20.045Z,135.43
2022-11-08T11:10:51.332Z,141.60
2022-11-08T11:13:24.611Z,140.85
2022-11-08T11:15:59.468Z,143.98
2022-11-08T11:18:35.264Z,144.43
2022-11-08T11:21:09.741Z,141.98
2022-11-08T11:23:44.017Z,125.63
2022-11-08T11:26:30.619Z,131.82
2022-11-08T11:29:21.605Z,142.27
2022-11-08T11:34:45.576Z,122.75
2022-11-08T11:37:23.642Z,96.40
2022-11-08T11:40:04.773Z,103.63
2022-11-08T11:42:46.301Z,69.67
2022-11-08T11:45:25.014Z,62.30
2022-11-08T11:47:56.597Z,63.17
2022-11-08T11:50:35.343Z,62.13
2022-11-08T11:53:08.573Z,67.72
2022-11-08T11:55:57.824Z,68.47
2022-11-08T11:58:45.287Z,68.40
2022-11-08T12:01:23.502Z,71.72
2022-11-08T12:04:21.859Z,69.47
2022-11-08T12:07:04.664Z,66.32
2022-11-08T12:09:56.772Z,69.47
2022-11-08T12:12:39.792Z,73.82
2022-11-08T12:15:23.723Z,70.63
2022-11-08T12:18:41.085Z,96.07
2022-11-08T12:21:16.533Z,88.47
2022-11-08T12:24:02.793Z,96.88
2022-11-08T12:26:42.294Z,126.05
2022-11-08T12:29:37.784Z,126.72
2022-11-08T12:32:23.604Z,82.45
2022-11-08T12:35:16.466Z,79.15
2022-11-08T12:37:58.773Z,72.05
2022-11-08T12:40:35.485Z,75.70
2022-11-08T12:43:20.257Z,74.20
2022-11-08T12:45:57.873Z,86.05
2022-11-08T12:48:46.039Z,66.47
2022-11-08T12:51:26.176Z,67.40
2022-11-08T12:54:13.954Z,58.90
2022-11-08T12:56:46.033Z,66.88
2022-11-08T12:59:23.272Z,64.70
2022-11-08T13:01:53.527Z,67.00
2022-11-08T13:04:51.327Z,64.78
2022-11-08T13:07:36.820Z,55.10
2022-11-08T13:10:17.576Z,56.17
2022-11-08T13:15:32.956Z,67.28
2022-11-08T13:18:33.804Z,61.60
2022-11-08T13:21:21.938Z,49.45
2022-11-08T13:23:54.055Z,66.85
2022-11-08T13:26:24.333Z,71.40
2022-11-08T13:28:53.471Z,116.28
2022-11-08T13:31:49.943Z,136.13
2022-11-08T13:34:47.060Z,104.85
2022-11-08T13:37:49.774Z,86.43
2022-11-08T13:41:07.667Z,83.13
2022-11-08T13:43:38.037Z,89.57
2022-11-08T13:46:46.740Z,91.68
2022-11-08T13:49:23.776Z,94.85
2022-11-08T13:52:12.979Z,70.30
2022-11-08T13:54:54.260Z,69.47
2022-11-08T13:58:00.368Z,72.13
2022-11-08T14:00:46.145Z,72.75
2022-11-08T14:03:56.613Z,72.70
2022-11-08T14:06:35.317Z,70.78
2022-11-08T14:09:15.085Z,75.38
2022-11-08T14:11:55.160Z,74.38
2022-11-08T14:14:38.281Z,83.63
2022-11-08T14:17:29.824Z,71.60
2022-11-08T14:20:15.244Z,68.82
2022-11-08T14:22:50.203Z,76.38
2022-11-08T14:25:27.437Z,79.47
2022-11-08T14:27:59.200Z,81.15
2022-11-08T14:30:30.034Z,76.50
2022-11-08T14:33:16.692Z,71.03
2022-11-08T14:35:57.759Z,71.82
2022-11-08T14:38:28.650Z,70.65
2022-11-08T14:40:59.642Z,68.10
2022-11-08T14:43:31.720Z,68.00
2022-11-08T14:46:10.962Z,64.57
2022-11-08T14:48:50.279Z,60.40
2022-11-08T14:51:22.149Z,57.08
2022-11-08T14:53:54.261Z,63.08
2022-11-08T14:56:28.826Z,60.78
2022-11-08T14:58:58.418Z,63.22
2022-11-08T15:01:29.242Z,61.95
2022-11-08T15:04:04.628Z,64.35
2022-11-08T15:06:37.245Z,71.40
2022-11-08T15:09:07.526Z,70.75
2022-11-08T15:11:40.215Z,73.85
2022-11-08T15:14:12.273Z,64.85
2022-11-08T15:16:44.378Z,63.92
2022-11-08T15:19:32.132Z,97.10
2022-11-08T15:22:02.336Z,65.25
2022-11-08T15:24:39.295Z,62.20
2022-11-08T15:27:15.517Z,63.63
2022-11-08T15:29:54.559Z,64.38
2022-11-08T15:32:25.396Z,60.50
2022-11-08T15:34:57.997Z,62.88
2022-11-08T15:37:32.962Z,66.70
2022-11-08T15:40:06.569Z,77.55
2022-11-08T15:42:44.645Z,67.10
2022-11-08T15:45:27.534Z,69.18
2022-11-08T15:48:12.094Z,68.85
2022-11-08T15:50:40.336Z,68.50
2022-11-08T15:53:10.291Z,68.40
2022-11-08T15:55:45.176Z,70.18
2022-11-08T15:58:18.054Z,71.35
2022-11-08T16:00:49.985Z,72.63
2022-11-08T16:03:19.543Z,69.20
2022-11-08T16:05:47.935Z,73.30
2022-11-08T16:08:20.449Z,73.82
2022-11-08T16:10:52.381Z,100.18
2022-11-08T16:13:24.692Z,72.25
2022-11-08T16:15:54.178Z,72.10
2022-11-08T16:18:23.833Z,68.10
2022-11-08T16:20:52.612Z,73.95
2022-11-08T16:23:21.317Z,71.47
2022-11-08T16:25:52.906Z,75.60
2022-11-08T16:28:23.385Z,69.05
2022-11-08T16:30:53.299Z,75.55
2022-11-08T16:33:25.600Z,78.35
2022-11-08T16:35:57.629Z,98.55
2022-11-08T16:40:59.075Z,98.03
2022-11-08T16:43:28.728Z,76.05
2022-11-08T16:46:05.649Z,96.18
2022-11-08T16:48:39.185Z,100.80
2022-11-08T16:51:16.127Z,97.75
2022-11-08T16:53:45.564Z,102.95
2022-11-08T16:56:15.968Z,103.38
2022-11-08T16:58:46.382Z,110.65
2022-11-08T17:01:20.430Z,116.40
2022-11-08T17:03:51.082Z,111.40
2022-11-08T17:06:22.689Z,112.28
2022-11-08T17:08:52.011Z,112.43
2022-11-08T17:11:24.158Z,118.88
2022-11-08T17:13:53.754Z,124.22
2022-11-08T17:16:21.921Z,122.43
2022-11-08T17:18:53.328Z,124.38
2022-11-08T17:24:21.142Z,120.13
2022-11-08T17:26:51.424Z,122.00
2022-11-08T17:29:22.357Z,101.80
2022-11-08T17:31:51.415Z,98.75
2022-11-08T17:34:22.193Z,104.55
2022-11-08T17:39:22.137Z,113.50
2022-11-08T17:41:51.545Z,123.60
2022-11-08T17:44:23.308Z,127.38
2022-11-08T17:46:51.760Z,125.47
2022-11-08T17:49:23.836Z,119.40
2022-11-08T17:51:52.094Z,112.90
2022-11-08T17:54:21.979Z,98.45
2022-11-08T17:56:51.621Z,112.25
2022-11-08T17:59:20.301Z,116.00
2022-11-08T18:01:48.617Z,118.53
2022-11-08T18:04:19.592Z,96.22
2022-11-08T18:06:51.820Z,112.05
2022-11-08T18:09:23.394Z,122.90
2022-11-08T18:11:52.738Z,83.68
2022-11-08T18:14:28.210Z,79.80
2022-11-08T18:16:59.736Z,72.35
2022-11-08T18:19:29.819Z,75.15
2022-11-08T18:22:00.864Z,72.20
2022-11-08T18:24:31.876Z,71.03
2022-11-08T18:27:00.554Z,64.38
2022-11-08T18:29:29.340Z,408.52
2022-11-08T18:32:01.670Z,244.75
2022-11-08T18:34:32.178Z,363.40
2022-11-08T18:37:03.207Z,204.80
2022-11-08T18:39:33.876Z,112.43
2022-11-08T18:42:04.378Z,113.68
2022-11-08T18:44:33.888Z,89.40
2022-11-08T18:47:03.438Z,73.60
2022-11-08T18:49:33.355Z,62.92
2022-11-08T18:52:04.458Z,60.58
2022-11-08T18:54:33.269Z,80.07
2022-11-08T18:57:02.930Z,71.43
2022-11-08T18:59:32.854Z,64.03
2022-11-08T19:02:03.193Z,59.88
2022-11-08T19:04:31.805Z,64.72
2022-11-08T19:07:00.284Z,73.15
2022-11-08T19:09:31.089Z,106.20
2022-11-08T19:12:05.496Z,107.10
2022-11-08T19:14:36.510Z,113.38
2022-11-08T19:17:05.867Z,83.68
2022-11-08T19:19:35.113Z,62.60
2022-11-08T19:22:03.261Z,62.67
2022-11-08T19:24:35.886Z,61.08
2022-11-08T19:27:06.051Z,62.03
2022-11-08T19:29:37.284Z,66.20
2022-11-08T19:32:06.914Z,84.60
2022-11-08T19:34:36.829Z,114.53
2022-11-08T19:37:05.565Z,115.63
2022-11-08T19:39:37.783Z,108.45
2022-11-08T19:42:06.692Z,108.33
2022-11-08T19:44:36.641Z,125.05
2022-11-08T19:47:06.008Z,110.75
2022-11-08T19:49:37.025Z,113.68
2022-11-08T19:52:05.423Z,117.32
2022-11-08T19:54:37.839Z,118.40
2022-11-08T19:57:07.620Z,118.00
2022-11-08T19:59:37.071Z,120.85
2022-11-08T20:02:06.488Z,118.10
2022-11-08T20:04:34.871Z,98.90
2022-11-08T20:07:04.688Z,115.82
2022-11-08T20:09:36.712Z,68.38
2022-11-08T20:12:05.880Z,87.32
2022-11-08T20:14:34.138Z,76.90
2022-11-08T20:17:03.852Z,76.13
2022-11-08T20:19:33.323Z,77.18
2022-11-08T20:22:04.566Z,70.15
2022-11-08T20:24:33.011Z,77.75
2022-11-08T20:27:04.250Z,77.22
2022-11-08T20:29:35.412Z,78.53
2022-11-08T20:32:07.570Z,74.35
2022-11-08T20:34:38.700Z,102.47
2022-11-08T20:37:08.685Z,83.35
2022-11-08T20:39:38.646Z,93.97
2022-11-08T20:42:10.829Z,68.25
2022-11-08T20:44:43.800Z,64.85
2022-11-08T20:47:16.735Z,68.32
2022-11-08T20:49:45.259Z,69.55
2022-11-08T20:52:23.637Z,68.40
2022-11-08T20:54:54.420Z,69.70
2022-11-08T20:57:25.154Z,67.95
2022-11-08T20:59:54.647Z,96.95
2022-11-08T21:02:24.070Z,69.53
2022-11-08T21:04:53.670Z,77.32
2022-11-08T21:10:40.636Z,86.65
2022-11-08T21:13:07.324Z,100.57
2022-11-08T21:15:35.504Z,100.35
2022-11-08T21:18:04.064Z,105.90
2022-11-08T21:20:32.149Z,110.68
2022-11-08T21:23:00.206Z,115.90
2022-11-08T21:25:30.778Z,117.45
2022-11-08T21:28:00.821Z,117.30
2022-11-08T21:30:30.672Z,107.85
2022-11-08T21:33:00.269Z,110.47
2022-11-08T21:35:31.052Z,117.57
2022-11-08T21:38:00.698Z,119.78
2022-11-08T21:40:28.781Z,120.45
2022-11-08T21:42:58.201Z,116.47
2022-11-08T21:45:30.298Z,115.65
2022-11-08T21:47:58.719Z,116.97
2022-11-08T21:50:28.290Z,110.40
2022-11-08T21:52:57.613Z,112.20
2022-11-08T21:55:27.976Z,119.10
2022-11-08T21:57:56.196Z,118.03
2022-11-08T22:00:26.205Z,112.18
2022-11-08T22:02:57.528Z,113.50
2022-11-08T22:05:25.823Z,116.30
2022-11-08T22:07:55.759Z,122.40
2022-11-08T22:10:25.041Z,119.90
2022-11-08T22:12:54.348Z,119.75
2022-11-08T22:15:24.670Z,117.88
2022-11-08T22:18:15.184Z,108.32
2022-11-08T22:21:01.613Z,81.88
2022-11-08T22:23:31.000Z,101.53
2022-11-08T22:26:02.073Z,97.35
2022-11-08T22:28:30.532Z,143.57
2022-11-08T22:30:58.884Z,246.88
2022-11-08T22:33:27.041Z,145.48
2022-11-08T22:35:57.129Z,105.28
2022-11-08T22:38:25.189Z,106.15
2022-11-08T22:40:54.823Z,105.40
2022-11-08T22:43:22.881Z,77.63
2022-11-08T22:45:52.186Z,80.85
2022-11-08T22:48:22.668Z,109.05
2022-11-08T22:50:53.713Z,110.28
2022-11-08T22:53:24.896Z,110.70
2022-11-08T22:55:53.072Z,98.18
2022-11-08T22:58:22.730Z,64.35
2022-11-08T23:00:53.336Z,64.53
2022-11-08T23:03:24.254Z,62.53
2022-11-08T23:05:56.694Z,63.08
2022-11-08T23:08:28.271Z,58.83
2022-11-08T23:11:19.231Z,55.25
2022-11-08T23:14:05.487Z,54.95
2022-11-08T23:16:38.023Z,50.78
2022-11-08T23:19:26.357Z,47.30
2022-11-08T23:22:14.899Z,58.15
2022-11-08T23:24:46.641Z,58.42
2022-11-08T23:27:35.749Z,53.78
2022-11-08T23:30:21.499Z,50.33
2022-11-08T23:32:51.552Z,67.97
2022-11-08T23:35:21.648Z,100.93
2022-11-08T23:37:52.577Z,107.25
2022-11-08T23:40:40.482Z,104.40
2022-11-08T23:43:33.869Z,99.78
2022-11-08T23:46:09.173Z,96.38
2022-11-08T23:48:39.834Z,65.85
2022-11-08T23:51:09.558Z,72.63
2022-11-08T23:53:39.993Z,106.05
2022-11-08T23:56:10.856Z,104.63
2022-11-08T23:58:41.196Z,107.90
